Aeroporto :
LOGIN :

Iscrizione | Disclaimer

   EN    FR    IT 

 










Sommario :    VFR   VFR Marginale   IFR   IFR Intensivo   IFR Molto Intensivo
Visibilità : 
Base nubi : 
>= 8 km
>= 3000ft
5 / 8 km
1000 / 3000 ft
1500m / 5 km
500 / 1000 ft
800 / 1500m
200 / 500 ft
< 800m
< 200 ft
Simboli :   Temporali  Nebbia  Neve Forte  Precipitazioni Forti  Vento > 20 kt
SIGMETs :   Varie  Temporali  Ghiacco  Turbolenza  Onda orograficha  Ceneri Vulcaniche







- Altitudine del aeroporto : 36 ft
- Codice IATA : LTQ
- Carte del aeroporto


LFAT - Le Touquet

ULTIMO METAR :
  • 191900Z AUTO 24006KT 210V270 7000 SCT007 OVC062 16/15 Q1009

METARs OBSOLETI :
  • 191830Z AUTO 27007KT 230V310 7000 FEW007 BKN066 OVC076 16/15 Q1009
  • 191800Z AUTO 26007KT 230V290 7000 NSC 17/15 Q1008 TEMPO BKN007
  • 191730Z AUTO 27006KT 240V320 7000 FEW007 BKN056 OVC090 16/15 Q1008 TEMPO BKN007
  • 191700Z AUTO 27008KT 230V300 8000 ///TCU 16/14 Q1009 TEMPO BKN007
  • 191630Z AUTO 30009KT 250V320 9999 FEW009/// SCT056/// BKN096/// ///TCU 17/14 Q1008 TEMPO BKN007
  • 191600Z AUTO 31007KT 270V330 9999 FEW009 BKN098 17/15 Q1008 TEMPO BKN007

TAF TAF LFAT
Valido dal 19 a 15 ore il 20 a 00 ore UTC


191400Z 1915/1924 28010KT 9999 SCT030
TEMPO 1915/1924 BKN007
ATIS : +33 3 21 06 62 84
Nessun NOTAM noto per questo aeroporto.



MetMap, La meteo Aeronautica in un colpo d'occhio ! - Copyright ORBIFLY Dicembre 2007 - Disclaimer

ORBIFLY MET'MAP TEAM :

Programmazione e sviluppo : Alexandra Zaïnal
Concezione e sviluppo : Baudouin d'Aumeries
Co-Programmazione e sviluppo : Marc-Olivier Méhu
Supporto tecnico e logistico : Manuel Goepfert
Aiuto per la traduzione : Arnaldo La Scala

Contatto : metmap@orbifly.com




FONTI E CREDITI :

   NOAA